sensor_id;sensor_type;location;lat;lon;timestamp;P1;durP1;ratioP1;P2;durP2;ratioP2
13250;SDS011;6692;50.710;7.180;2023-06-26T00:01:49;1999.90;;;999.90;;
13250;SDS011;6692;50.710;7.180;2023-06-26T00:03:50;1999.90;;;999.90;;
13250;SDS011;6692;50.710;7.180;2023-06-26T00:05:50;1999.90;;;999.90;;
13250;SDS011;6692;50.710;7.180;2023-06-26T00:07:51;1999.90;;;999.90;;
13250;SDS011;6692;50.710;7.180;2023-06-26T00:09:52;1999.90;;;999.90;;
13250;SDS011;6692;50.710;7.180;2023-06-26T00:11:53;1999.90;;;999.90;;
13250;SDS011;6692;50.710;7.180;2023-06-26T00:13:54;1999.90;;;999.90;;
13250;SDS011;6692;50.710;7.180;2023-06-26T00:15:55;1999.90;;;999.90;;
13250;SDS011;6692;50.710;7.180;2023-06-26T00:17:56;1999.90;;;999.90;;
13250;SDS011;6692;50.710;7.180;2023-06-26T00:19:56;1999.90;;;999.90;;
13250;SDS011;6692;50.710;7.180;2023-06-26T00:21:57;1999.90;;;999.90;;
13250;SDS011;6692;50.710;7.180;2023-06-26T00:23:58;1999.90;;;999.90;;
13250;SDS011;6692;50.710;7.180;2023-06-26T00:25:58;1999.90;;;999.90;;
13250;SDS011;6692;50.710;7.180;2023-06-26T00:27:59;1999.90;;;999.90;;
13250;SDS011;6692;50.710;7.180;2023-06-26T00:30:00;1999.90;;;999.90;;
13250;SDS011;6692;50.710;7.180;2023-06-26T00:32:00;1999.90;;;999.90;;
13250;SDS011;6692;50.710;7.180;2023-06-26T00:34:01;1999.90;;;999.90;;
13250;SDS011;6692;50.710;7.180;2023-06-26T00:36:02;1999.90;;;999.90;;
13250;SDS011;6692;50.710;7.180;2023-06-26T00:38:03;1999.90;;;999.90;;
13250;SDS011;6692;50.710;7.180;2023-06-26T00:40:04;1999.90;;;999.90;;
13250;SDS011;6692;50.710;7.180;2023-06-26T00:42:06;1999.90;;;999.90;;
13250;SDS011;6692;50.710;7.180;2023-06-26T00:44:07;1999.90;;;999.90;;
13250;SDS011;6692;50.710;7.180;2023-06-26T00:46:08;1999.90;;;999.90;;
13250;SDS011;6692;50.710;7.180;2023-06-26T00:48:09;1999.90;;;999.90;;
13250;SDS011;6692;50.710;7.180;2023-06-26T00:50:09;1999.90;;;999.90;;
13250;SDS011;6692;50.710;7.180;2023-06-26T00:52:10;1999.90;;;999.90;;
13250;SDS011;6692;50.710;7.180;2023-06-26T00:54:10;1999.90;;;999.90;;
13250;SDS011;6692;50.710;7.180;2023-06-26T00:56:11;1999.90;;;999.90;;
13250;SDS011;6692;50.710;7.180;2023-06-26T00:58:13;1999.90;;;999.90;;
13250;SDS011;6692;50.710;7.180;2023-06-26T01:00:14;1999.90;;;999.90;;
13250;SDS011;6692;50.710;7.180;2023-06-26T01:02:15;1999.90;;;999.90;;
13250;SDS011;6692;50.710;7.180;2023-06-26T01:04:17;1999.90;;;999.90;;
13250;SDS011;6692;50.710;7.180;2023-06-26T01:06:20;1999.90;;;999.90;;
13250;SDS011;6692;50.710;7.180;2023-06-26T01:08:19;1999.90;;;999.90;;
13250;SDS011;6692;50.710;7.180;2023-06-26T01:10:20;1999.90;;;999.90;;
13250;SDS011;6692;50.710;7.180;2023-06-26T01:12:20;1999.90;;;999.90;;
13250;SDS011;6692;50.710;7.180;2023-06-26T01:14:23;1999.90;;;999.90;;
13250;SDS011;6692;50.710;7.180;2023-06-26T01:16:23;1999.90;;;999.90;;
13250;SDS011;6692;50.710;7.180;2023-06-26T01:18:23;1999.90;;;999.90;;
13250;SDS011;6692;50.710;7.180;2023-06-26T01:20:24;1999.90;;;999.90;;
13250;SDS011;6692;50.710;7.180;2023-06-26T01:22:31;1999.90;;;999.90;;
13250;SDS011;6692;50.710;7.180;2023-06-26T01:24:32;1999.90;;;999.90;;
13250;SDS011;6692;50.710;7.180;2023-06-26T01:26:32;1999.90;;;999.90;;
13250;SDS011;6692;50.710;7.180;2023-06-26T01:28:33;1999.90;;;999.90;;
13250;SDS011;6692;50.710;7.180;2023-06-26T01:30:34;1999.90;;;999.90;;
13250;SDS011;6692;50.710;7.180;2023-06-26T01:32:34;1999.90;;;999.90;;
13250;SDS011;6692;50.710;7.180;2023-06-26T01:34:34;1999.90;;;999.90;;
13250;SDS011;6692;50.710;7.180;2023-06-26T01:36:36;1999.90;;;999.90;;
13250;SDS011;6692;50.710;7.180;2023-06-26T01:38:36;1999.90;;;999.90;;
13250;SDS011;6692;50.710;7.180;2023-06-26T01:40:38;1999.90;;;999.90;;
13250;SDS011;6692;50.710;7.180;2023-06-26T01:42:38;1999.90;;;999.90;;
13250;SDS011;6692;50.710;7.180;2023-06-26T01:44:42;1999.90;;;999.90;;
13250;SDS011;6692;50.710;7.180;2023-06-26T01:46:53;1999.90;;;999.90;;
13250;SDS011;6692;50.710;7.180;2023-06-26T01:49:03;1999.90;;;999.90;;
13250;SDS011;6692;50.710;7.180;2023-06-26T01:51:03;1999.90;;;999.90;;
13250;SDS011;6692;50.710;7.180;2023-06-26T01:53:08;1999.90;;;999.90;;
13250;SDS011;6692;50.710;7.180;2023-06-26T01:55:28;1999.90;;;999.90;;
13250;SDS011;6692;50.710;7.180;2023-06-26T01:57:29;1999.90;;;999.90;;
13250;SDS011;6692;50.710;7.180;2023-06-26T01:59:30;1999.90;;;999.90;;
13250;SDS011;6692;50.710;7.180;2023-06-26T02:01:31;1999.90;;;999.90;;
13250;SDS011;6692;50.710;7.180;2023-06-26T02:03:31;1999.90;;;999.90;;
13250;SDS011;6692;50.710;7.180;2023-06-26T02:05:32;1999.90;;;999.90;;
13250;SDS011;6692;50.710;7.180;2023-06-26T02:07:33;1999.90;;;999.90;;
13250;SDS011;6692;50.710;7.180;2023-06-26T02:09:33;1999.90;;;999.90;;
13250;SDS011;6692;50.710;7.180;2023-06-26T02:11:35;1999.90;;;999.90;;
13250;SDS011;6692;50.710;7.180;2023-06-26T02:13:35;1999.90;;;999.90;;
13250;SDS011;6692;50.710;7.180;2023-06-26T02:15:36;1999.90;;;999.90;;
13250;SDS011;6692;50.710;7.180;2023-06-26T02:17:37;1999.90;;;999.90;;
13250;SDS011;6692;50.710;7.180;2023-06-26T02:19:38;1999.90;;;999.90;;
13250;SDS011;6692;50.710;7.180;2023-06-26T02:21:39;1999.90;;;999.90;;
13250;SDS011;6692;50.710;7.180;2023-06-26T02:23:40;1999.90;;;999.90;;
13250;SDS011;6692;50.710;7.180;2023-06-26T02:25:41;1999.90;;;999.90;;
13250;SDS011;6692;50.710;7.180;2023-06-26T02:27:42;1999.90;;;999.90;;
13250;SDS011;6692;50.710;7.180;2023-06-26T02:29:43;1999.90;;;999.90;;
13250;SDS011;6692;50.710;7.180;2023-06-26T02:31:44;1999.90;;;999.90;;
13250;SDS011;6692;50.710;7.180;2023-06-26T02:33:45;1999.90;;;999.90;;
13250;SDS011;6692;50.710;7.180;2023-06-26T02:35:46;1999.90;;;999.90;;
13250;SDS011;6692;50.710;7.180;2023-06-26T02:37:47;1999.90;;;999.90;;
13250;SDS011;6692;50.710;7.180;2023-06-26T02:39:48;1999.90;;;999.90;;
13250;SDS011;6692;50.710;7.180;2023-06-26T02:41:49;1999.90;;;999.90;;
13250;SDS011;6692;50.710;7.180;2023-06-26T02:43:49;1999.90;;;999.90;;
13250;SDS011;6692;50.710;7.180;2023-06-26T02:45:50;1999.90;;;999.90;;
13250;SDS011;6692;50.710;7.180;2023-06-26T02:47:52;1999.90;;;999.90;;
13250;SDS011;6692;50.710;7.180;2023-06-26T02:49:52;1999.90;;;999.90;;
13250;SDS011;6692;50.710;7.180;2023-06-26T02:51:53;1999.90;;;999.90;;
13250;SDS011;6692;50.710;7.180;2023-06-26T02:53:54;1999.90;;;999.90;;
13250;SDS011;6692;50.710;7.180;2023-06-26T02:55:55;1999.90;;;999.90;;
13250;SDS011;6692;50.710;7.180;2023-06-26T02:57:55;1999.90;;;999.90;;
13250;SDS011;6692;50.710;7.180;2023-06-26T02:59:56;1999.90;;;999.90;;
13250;SDS011;6692;50.710;7.180;2023-06-26T03:01:57;1999.90;;;999.90;;
13250;SDS011;6692;50.710;7.180;2023-06-26T03:03:58;1999.90;;;999.90;;
13250;SDS011;6692;50.710;7.180;2023-06-26T03:05:59;1999.90;;;999.90;;
13250;SDS011;6692;50.710;7.180;2023-06-26T03:08:01;1999.90;;;999.90;;
13250;SDS011;6692;50.710;7.180;2023-06-26T03:10:01;1999.90;;;999.90;;
13250;SDS011;6692;50.710;7.180;2023-06-26T03:12:02;1999.90;;;999.90;;
13250;SDS011;6692;50.710;7.180;2023-06-26T03:14:03;1999.90;;;999.90;;
13250;SDS011;6692;50.710;7.180;2023-06-26T03:16:04;1999.90;;;999.90;;
13250;SDS011;6692;50.710;7.180;2023-06-26T03:18:04;1999.90;;;999.90;;
13250;SDS011;6692;50.710;7.180;2023-06-26T03:20:05;1999.90;;;999.90;;
13250;SDS011;6692;50.710;7.180;2023-06-26T03:22:07;1999.90;;;999.90;;
13250;SDS011;6692;50.710;7.180;2023-06-26T03:24:09;1999.90;;;999.90;;
13250;SDS011;6692;50.710;7.180;2023-06-26T03:26:09;1999.90;;;999.90;;
13250;SDS011;6692;50.710;7.180;2023-06-26T03:28:10;1999.90;;;999.90;;
13250;SDS011;6692;50.710;7.180;2023-06-26T03:30:11;1999.90;;;999.90;;
13250;SDS011;6692;50.710;7.180;2023-06-26T03:32:12;1999.90;;;999.90;;
13250;SDS011;6692;50.710;7.180;2023-06-26T03:34:13;1999.90;;;999.90;;
13250;SDS011;6692;50.710;7.180;2023-06-26T03:36:13;1999.90;;;999.90;;
13250;SDS011;6692;50.710;7.180;2023-06-26T03:38:14;1999.90;;;999.90;;
13250;SDS011;6692;50.710;7.180;2023-06-26T03:40:15;1999.90;;;999.90;;
13250;SDS011;6692;50.710;7.180;2023-06-26T03:42:15;1999.90;;;999.90;;
13250;SDS011;6692;50.710;7.180;2023-06-26T03:44:17;1999.90;;;999.90;;
13250;SDS011;6692;50.710;7.180;2023-06-26T03:46:18;1999.90;;;999.90;;
13250;SDS011;6692;50.710;7.180;2023-06-26T03:48:19;1999.90;;;999.90;;
13250;SDS011;6692;50.710;7.180;2023-06-26T03:50:20;1999.90;;;999.90;;
13250;SDS011;6692;50.710;7.180;2023-06-26T03:52:21;1999.90;;;999.90;;
13250;SDS011;6692;50.710;7.180;2023-06-26T03:54:22;1999.90;;;999.90;;
13250;SDS011;6692;50.710;7.180;2023-06-26T03:56:23;1999.90;;;999.90;;
13250;SDS011;6692;50.710;7.180;2023-06-26T03:58:24;1999.90;;;999.90;;
13250;SDS011;6692;50.710;7.180;2023-06-26T04:00:25;1999.90;;;999.90;;
13250;SDS011;6692;50.710;7.180;2023-06-26T04:02:26;1999.90;;;999.90;;
13250;SDS011;6692;50.710;7.180;2023-06-26T04:04:27;1999.90;;;999.90;;
13250;SDS011;6692;50.710;7.180;2023-06-26T04:06:28;1999.90;;;999.90;;
13250;SDS011;6692;50.710;7.180;2023-06-26T04:08:29;1999.90;;;999.90;;
13250;SDS011;6692;50.710;7.180;2023-06-26T04:10:30;1999.90;;;999.90;;
13250;SDS011;6692;50.710;7.180;2023-06-26T04:12:32;1999.90;;;999.90;;
13250;SDS011;6692;50.710;7.180;2023-06-26T04:14:32;1999.90;;;999.90;;
13250;SDS011;6692;50.710;7.180;2023-06-26T04:16:33;1999.90;;;999.90;;
13250;SDS011;6692;50.710;7.180;2023-06-26T04:18:34;1999.90;;;999.90;;
13250;SDS011;6692;50.710;7.180;2023-06-26T04:20:38;1999.90;;;999.90;;
13250;SDS011;6692;50.710;7.180;2023-06-26T04:22:37;1999.90;;;999.90;;
13250;SDS011;6692;50.710;7.180;2023-06-26T04:24:38;1999.90;;;999.90;;
13250;SDS011;6692;50.710;7.180;2023-06-26T04:26:40;1999.90;;;999.90;;
13250;SDS011;6692;50.710;7.180;2023-06-26T04:28:42;1999.90;;;999.90;;
13250;SDS011;6692;50.710;7.180;2023-06-26T04:30:43;1999.90;;;999.90;;
13250;SDS011;6692;50.710;7.180;2023-06-26T04:32:43;1999.90;;;999.90;;
13250;SDS011;6692;50.710;7.180;2023-06-26T04:34:44;1999.90;;;999.90;;
13250;SDS011;6692;50.710;7.180;2023-06-26T04:36:45;1999.90;;;999.90;;
13250;SDS011;6692;50.710;7.180;2023-06-26T04:38:46;1999.90;;;999.90;;
13250;SDS011;6692;50.710;7.180;2023-06-26T04:40:47;1999.90;;;999.90;;
13250;SDS011;6692;50.710;7.180;2023-06-26T04:42:47;1999.90;;;999.90;;
13250;SDS011;6692;50.710;7.180;2023-06-26T04:44:49;1999.90;;;999.90;;
13250;SDS011;6692;50.710;7.180;2023-06-26T04:46:49;1999.90;;;999.90;;
13250;SDS011;6692;50.710;7.180;2023-06-26T04:48:50;1999.90;;;999.90;;
13250;SDS011;6692;50.710;7.180;2023-06-26T04:50:52;1999.90;;;999.90;;
13250;SDS011;6692;50.710;7.180;2023-06-26T04:52:53;1999.90;;;999.90;;
13250;SDS011;6692;50.710;7.180;2023-06-26T04:54:54;1999.90;;;999.90;;
13250;SDS011;6692;50.710;7.180;2023-06-26T04:56:55;1999.90;;;999.90;;
13250;SDS011;6692;50.710;7.180;2023-06-26T04:58:56;1999.90;;;999.90;;
13250;SDS011;6692;50.710;7.180;2023-06-26T05:00:57;1999.90;;;999.90;;
13250;SDS011;6692;50.710;7.180;2023-06-26T05:02:58;1999.90;;;999.90;;
13250;SDS011;6692;50.710;7.180;2023-06-26T05:05:00;1999.90;;;999.90;;
13250;SDS011;6692;50.710;7.180;2023-06-26T05:07:00;1999.90;;;999.90;;
13250;SDS011;6692;50.710;7.180;2023-06-26T05:09:02;1999.90;;;999.90;;
13250;SDS011;6692;50.710;7.180;2023-06-26T05:11:03;1999.90;;;999.90;;
13250;SDS011;6692;50.710;7.180;2023-06-26T05:13:04;1999.90;;;999.90;;
13250;SDS011;6692;50.710;7.180;2023-06-26T05:15:05;1999.90;;;999.90;;
13250;SDS011;6692;50.710;7.180;2023-06-26T05:17:07;1999.90;;;999.90;;
13250;SDS011;6692;50.710;7.180;2023-06-26T05:19:07;1999.90;;;999.90;;
13250;SDS011;6692;50.710;7.180;2023-06-26T05:21:08;1999.90;;;999.90;;
13250;SDS011;6692;50.710;7.180;2023-06-26T05:23:10;1999.90;;;999.90;;
13250;SDS011;6692;50.710;7.180;2023-06-26T05:25:11;1999.90;;;999.90;;
13250;SDS011;6692;50.710;7.180;2023-06-26T05:27:12;1999.90;;;999.90;;
13250;SDS011;6692;50.710;7.180;2023-06-26T05:29:13;1999.90;;;999.90;;
13250;SDS011;6692;50.710;7.180;2023-06-26T05:31:15;1999.90;;;999.90;;
13250;SDS011;6692;50.710;7.180;2023-06-26T05:33:15;1999.90;;;999.90;;
13250;SDS011;6692;50.710;7.180;2023-06-26T05:35:16;1999.90;;;999.90;;
13250;SDS011;6692;50.710;7.180;2023-06-26T05:37:18;1999.90;;;999.90;;
13250;SDS011;6692;50.710;7.180;2023-06-26T05:39:18;1999.90;;;999.90;;
13250;SDS011;6692;50.710;7.180;2023-06-26T05:41:19;1999.90;;;999.90;;
13250;SDS011;6692;50.710;7.180;2023-06-26T05:43:20;1999.90;;;999.90;;
13250;SDS011;6692;50.710;7.180;2023-06-26T05:45:21;1999.90;;;999.90;;
13250;SDS011;6692;50.710;7.180;2023-06-26T05:47:22;1999.90;;;999.90;;
13250;SDS011;6692;50.710;7.180;2023-06-26T05:49:22;1999.90;;;999.90;;
13250;SDS011;6692;50.710;7.180;2023-06-26T05:51:23;1999.90;;;999.90;;
13250;SDS011;6692;50.710;7.180;2023-06-26T05:53:24;1999.90;;;999.90;;
13250;SDS011;6692;50.710;7.180;2023-06-26T05:55:25;1999.90;;;999.90;;
13250;SDS011;6692;50.710;7.180;2023-06-26T05:57:26;1999.90;;;999.90;;
13250;SDS011;6692;50.710;7.180;2023-06-26T05:59:28;1999.90;;;999.90;;
13250;SDS011;6692;50.710;7.180;2023-06-26T06:01:28;1999.90;;;999.90;;
13250;SDS011;6692;50.710;7.180;2023-06-26T06:03:29;1999.90;;;999.90;;
13250;SDS011;6692;50.710;7.180;2023-06-26T06:05:30;1999.90;;;999.90;;
13250;SDS011;6692;50.710;7.180;2023-06-26T06:07:31;1999.90;;;999.90;;
13250;SDS011;6692;50.710;7.180;2023-06-26T06:09:32;1999.90;;;999.90;;
13250;SDS011;6692;50.710;7.180;2023-06-26T06:11:33;1999.90;;;999.90;;
13250;SDS011;6692;50.710;7.180;2023-06-26T06:13:33;1999.90;;;999.90;;
13250;SDS011;6692;50.710;7.180;2023-06-26T06:15:34;1999.90;;;999.90;;
13250;SDS011;6692;50.710;7.180;2023-06-26T06:17:35;1999.90;;;999.90;;
13250;SDS011;6692;50.710;7.180;2023-06-26T06:19:36;1999.90;;;999.90;;
13250;SDS011;6692;50.710;7.180;2023-06-26T06:21:37;1999.90;;;999.90;;
13250;SDS011;6692;50.710;7.180;2023-06-26T06:23:38;1999.90;;;999.90;;
13250;SDS011;6692;50.710;7.180;2023-06-26T06:25:39;1999.90;;;999.90;;
13250;SDS011;6692;50.710;7.180;2023-06-26T06:27:40;1999.90;;;999.90;;
13250;SDS011;6692;50.710;7.180;2023-06-26T06:29:42;1999.90;;;999.90;;
13250;SDS011;6692;50.710;7.180;2023-06-26T06:31:43;1999.90;;;999.90;;
13250;SDS011;6692;50.710;7.180;2023-06-26T06:33:44;1999.90;;;999.90;;
13250;SDS011;6692;50.710;7.180;2023-06-26T06:35:45;1999.90;;;999.90;;
13250;SDS011;6692;50.710;7.180;2023-06-26T06:37:45;1999.90;;;999.90;;
13250;SDS011;6692;50.710;7.180;2023-06-26T06:39:47;1999.90;;;999.90;;
13250;SDS011;6692;50.710;7.180;2023-06-26T06:41:48;1999.90;;;999.90;;
13250;SDS011;6692;50.710;7.180;2023-06-26T06:43:48;1999.90;;;999.90;;
13250;SDS011;6692;50.710;7.180;2023-06-26T06:45:50;1999.90;;;999.90;;
13250;SDS011;6692;50.710;7.180;2023-06-26T06:47:50;1999.90;;;999.90;;
13250;SDS011;6692;50.710;7.180;2023-06-26T06:49:51;1999.90;;;999.90;;
13250;SDS011;6692;50.710;7.180;2023-06-26T06:51:53;1999.90;;;999.90;;
13250;SDS011;6692;50.710;7.180;2023-06-26T06:53:53;1999.90;;;999.90;;
13250;SDS011;6692;50.710;7.180;2023-06-26T06:55:54;1999.90;;;999.90;;
13250;SDS011;6692;50.710;7.180;2023-06-26T06:57:55;1999.90;;;999.90;;
13250;SDS011;6692;50.710;7.180;2023-06-26T06:59:55;1999.90;;;999.90;;
13250;SDS011;6692;50.710;7.180;2023-06-26T07:01:56;1999.90;;;999.90;;
13250;SDS011;6692;50.710;7.180;2023-06-26T07:03:57;1999.90;;;999.90;;
13250;SDS011;6692;50.710;7.180;2023-06-26T07:05:58;1999.90;;;999.90;;
13250;SDS011;6692;50.710;7.180;2023-06-26T07:07:58;1999.90;;;999.90;;
13250;SDS011;6692;50.710;7.180;2023-06-26T07:10:00;1999.90;;;999.90;;
13250;SDS011;6692;50.710;7.180;2023-06-26T07:12:01;1999.90;;;999.90;;
13250;SDS011;6692;50.710;7.180;2023-06-26T07:14:02;1999.90;;;999.90;;
13250;SDS011;6692;50.710;7.180;2023-06-26T07:16:03;1999.90;;;999.90;;
13250;SDS011;6692;50.710;7.180;2023-06-26T07:18:04;1999.90;;;999.90;;
13250;SDS011;6692;50.710;7.180;2023-06-26T07:20:05;1999.90;;;999.90;;
13250;SDS011;6692;50.710;7.180;2023-06-26T07:22:07;1999.90;;;999.90;;
13250;SDS011;6692;50.710;7.180;2023-06-26T07:24:08;1999.90;;;999.90;;
13250;SDS011;6692;50.710;7.180;2023-06-26T07:26:09;1999.90;;;999.90;;
13250;SDS011;6692;50.710;7.180;2023-06-26T07:28:11;1999.90;;;999.90;;
13250;SDS011;6692;50.710;7.180;2023-06-26T07:30:11;1999.90;;;999.90;;
13250;SDS011;6692;50.710;7.180;2023-06-26T07:32:12;1999.90;;;999.90;;
13250;SDS011;6692;50.710;7.180;2023-06-26T07:34:13;1999.90;;;999.90;;
13250;SDS011;6692;50.710;7.180;2023-06-26T07:36:13;1999.90;;;999.90;;
13250;SDS011;6692;50.710;7.180;2023-06-26T07:38:15;1999.90;;;999.90;;
13250;SDS011;6692;50.710;7.180;2023-06-26T07:40:16;1999.90;;;999.90;;
13250;SDS011;6692;50.710;7.180;2023-06-26T07:42:17;1999.90;;;999.90;;
13250;SDS011;6692;50.710;7.180;2023-06-26T07:44:18;1999.90;;;999.90;;
13250;SDS011;6692;50.710;7.180;2023-06-26T07:46:19;1999.90;;;999.90;;
13250;SDS011;6692;50.710;7.180;2023-06-26T07:48:20;1999.90;;;999.90;;
13250;SDS011;6692;50.710;7.180;2023-06-26T07:50:21;1999.90;;;999.90;;
13250;SDS011;6692;50.710;7.180;2023-06-26T07:52:21;1999.90;;;999.90;;
13250;SDS011;6692;50.710;7.180;2023-06-26T07:54:22;1999.90;;;999.90;;
13250;SDS011;6692;50.710;7.180;2023-06-26T07:56:23;1999.90;;;999.90;;
13250;SDS011;6692;50.710;7.180;2023-06-26T07:58:23;1999.90;;;999.90;;
13250;SDS011;6692;50.710;7.180;2023-06-26T08:00:24;1999.90;;;999.90;;
13250;SDS011;6692;50.710;7.180;2023-06-26T08:02:25;1999.90;;;999.90;;
13250;SDS011;6692;50.710;7.180;2023-06-26T08:04:26;1999.90;;;999.90;;
13250;SDS011;6692;50.710;7.180;2023-06-26T08:06:26;1999.90;;;999.90;;
13250;SDS011;6692;50.710;7.180;2023-06-26T08:08:27;1999.90;;;999.90;;
13250;SDS011;6692;50.710;7.180;2023-06-26T08:10:27;1999.90;;;999.90;;
13250;SDS011;6692;50.710;7.180;2023-06-26T08:12:28;1999.90;;;999.90;;
13250;SDS011;6692;50.710;7.180;2023-06-26T08:14:29;1999.90;;;999.90;;
13250;SDS011;6692;50.710;7.180;2023-06-26T08:16:29;1999.90;;;999.90;;
13250;SDS011;6692;50.710;7.180;2023-06-26T08:18:30;1999.90;;;999.90;;
13250;SDS011;6692;50.710;7.180;2023-06-26T08:20:31;1999.90;;;999.90;;
13250;SDS011;6692;50.710;7.180;2023-06-26T08:22:31;1999.90;;;999.90;;
13250;SDS011;6692;50.710;7.180;2023-06-26T08:24:33;1999.90;;;999.90;;
13250;SDS011;6692;50.710;7.180;2023-06-26T08:26:34;1999.90;;;999.90;;
13250;SDS011;6692;50.710;7.180;2023-06-26T08:28:34;1999.90;;;999.90;;
13250;SDS011;6692;50.710;7.180;2023-06-26T08:30:35;1999.90;;;999.90;;
13250;SDS011;6692;50.710;7.180;2023-06-26T08:32:36;1999.90;;;999.90;;
13250;SDS011;6692;50.710;7.180;2023-06-26T08:34:36;1999.90;;;999.90;;
13250;SDS011;6692;50.710;7.180;2023-06-26T08:36:38;1999.90;;;999.90;;
13250;SDS011;6692;50.710;7.180;2023-06-26T08:38:38;1999.90;;;999.90;;
13250;SDS011;6692;50.710;7.180;2023-06-26T08:40:40;1999.90;;;999.90;;
13250;SDS011;6692;50.710;7.180;2023-06-26T08:42:41;1999.90;;;999.90;;
13250;SDS011;6692;50.710;7.180;2023-06-26T08:44:41;1999.90;;;999.90;;
13250;SDS011;6692;50.710;7.180;2023-06-26T08:46:42;1999.90;;;999.90;;
13250;SDS011;6692;50.710;7.180;2023-06-26T08:48:45;1999.90;;;999.90;;
13250;SDS011;6692;50.710;7.180;2023-06-26T08:50:44;1999.90;;;999.90;;
13250;SDS011;6692;50.710;7.180;2023-06-26T08:52:50;1999.90;;;999.90;;
13250;SDS011;6692;50.710;7.180;2023-06-26T08:54:48;1999.90;;;999.90;;
13250;SDS011;6692;50.710;7.180;2023-06-26T08:56:49;1999.90;;;999.90;;
13250;SDS011;6692;50.710;7.180;2023-06-26T08:58:50;1999.90;;;999.90;;
13250;SDS011;6692;50.710;7.180;2023-06-26T09:00:50;1999.90;;;999.90;;
13250;SDS011;6692;50.710;7.180;2023-06-26T09:02:51;1999.90;;;999.90;;
13250;SDS011;6692;50.710;7.180;2023-06-26T09:04:52;1999.90;;;999.90;;
13250;SDS011;6692;50.710;7.180;2023-06-26T09:06:52;1999.90;;;999.90;;
13250;SDS011;6692;50.710;7.180;2023-06-26T09:08:53;1999.90;;;999.90;;
13250;SDS011;6692;50.710;7.180;2023-06-26T09:10:54;1999.90;;;999.90;;
13250;SDS011;6692;50.710;7.180;2023-06-26T09:12:55;1999.90;;;999.90;;
13250;SDS011;6692;50.710;7.180;2023-06-26T09:14:55;1999.90;;;999.90;;
13250;SDS011;6692;50.710;7.180;2023-06-26T09:16:56;1999.90;;;999.90;;
13250;SDS011;6692;50.710;7.180;2023-06-26T09:18:58;1999.90;;;999.90;;
13250;SDS011;6692;50.710;7.180;2023-06-26T09:20:58;1999.90;;;999.90;;
13250;SDS011;6692;50.710;7.180;2023-06-26T09:22:59;1999.90;;;999.90;;
13250;SDS011;6692;50.710;7.180;2023-06-26T09:25:00;1999.90;;;999.90;;
13250;SDS011;6692;50.710;7.180;2023-06-26T09:27:00;1999.90;;;999.90;;
13250;SDS011;6692;50.710;7.180;2023-06-26T09:29:01;1999.90;;;999.90;;
13250;SDS011;6692;50.710;7.180;2023-06-26T09:31:03;1999.90;;;999.90;;
13250;SDS011;6692;50.710;7.180;2023-06-26T09:35:13;1999.90;;;999.90;;
13250;SDS011;6692;50.710;7.180;2023-06-26T09:37:13;1999.90;;;999.90;;
13250;SDS011;6692;50.710;7.180;2023-06-26T09:39:14;1999.90;;;999.90;;
13250;SDS011;6692;50.710;7.180;2023-06-26T09:41:15;1999.90;;;999.90;;
13250;SDS011;6692;50.710;7.180;2023-06-26T09:43:15;1999.90;;;999.90;;
13250;SDS011;6692;50.710;7.180;2023-06-26T09:45:18;1999.90;;;999.90;;
13250;SDS011;6692;50.710;7.180;2023-06-26T09:47:18;1999.90;;;999.90;;
13250;SDS011;6692;50.710;7.180;2023-06-26T09:49:19;1999.90;;;999.90;;
13250;SDS011;6692;50.710;7.180;2023-06-26T09:51:20;1999.90;;;999.90;;
13250;SDS011;6692;50.710;7.180;2023-06-26T09:53:21;1999.90;;;999.90;;
13250;SDS011;6692;50.710;7.180;2023-06-26T09:55:22;1999.90;;;999.90;;
13250;SDS011;6692;50.710;7.180;2023-06-26T09:57:24;1999.90;;;999.90;;
13250;SDS011;6692;50.710;7.180;2023-06-26T09:59:24;1999.90;;;999.90;;
13250;SDS011;6692;50.710;7.180;2023-06-26T10:01:25;1999.90;;;999.90;;
13250;SDS011;6692;50.710;7.180;2023-06-26T10:03:26;1999.90;;;999.90;;
13250;SDS011;6692;50.710;7.180;2023-06-26T10:05:26;1999.90;;;999.90;;
13250;SDS011;6692;50.710;7.180;2023-06-26T10:07:27;1999.90;;;999.90;;
13250;SDS011;6692;50.710;7.180;2023-06-26T10:09:28;1999.90;;;999.90;;
13250;SDS011;6692;50.710;7.180;2023-06-26T10:11:31;1999.90;;;999.90;;
13250;SDS011;6692;50.710;7.180;2023-06-26T10:13:33;1999.90;;;999.90;;
13250;SDS011;6692;50.710;7.180;2023-06-26T10:15:32;1999.90;;;999.90;;
13250;SDS011;6692;50.710;7.180;2023-06-26T10:17:34;1999.90;;;999.90;;
13250;SDS011;6692;50.710;7.180;2023-06-26T10:19:34;1999.90;;;999.90;;
13250;SDS011;6692;50.710;7.180;2023-06-26T10:21:35;1999.90;;;999.90;;
13250;SDS011;6692;50.710;7.180;2023-06-26T10:23:36;1999.90;;;999.90;;
13250;SDS011;6692;50.710;7.180;2023-06-26T10:25:37;1999.90;;;999.90;;
13250;SDS011;6692;50.710;7.180;2023-06-26T10:27:38;1999.90;;;999.90;;
13250;SDS011;6692;50.710;7.180;2023-06-26T10:29:38;1999.90;;;999.90;;
13250;SDS011;6692;50.710;7.180;2023-06-26T10:31:39;1999.90;;;999.90;;
13250;SDS011;6692;50.710;7.180;2023-06-26T10:33:40;1999.90;;;999.90;;
13250;SDS011;6692;50.710;7.180;2023-06-26T10:35:42;1999.90;;;999.90;;
13250;SDS011;6692;50.710;7.180;2023-06-26T10:37:44;1999.90;;;999.90;;
13250;SDS011;6692;50.710;7.180;2023-06-26T10:39:47;1999.90;;;999.90;;
13250;SDS011;6692;50.710;7.180;2023-06-26T10:41:48;1999.90;;;999.90;;
13250;SDS011;6692;50.710;7.180;2023-06-26T10:43:50;1999.90;;;999.90;;
13250;SDS011;6692;50.710;7.180;2023-06-26T10:45:50;1999.90;;;999.90;;
13250;SDS011;6692;50.710;7.180;2023-06-26T10:47:53;1999.90;;;999.90;;
13250;SDS011;6692;50.710;7.180;2023-06-26T10:49:54;1999.90;;;999.90;;
13250;SDS011;6692;50.710;7.180;2023-06-26T10:51:55;1999.90;;;999.90;;
13250;SDS011;6692;50.710;7.180;2023-06-26T10:53:56;1999.90;;;999.90;;
13250;SDS011;6692;50.710;7.180;2023-06-26T10:55:58;1999.90;;;999.90;;
13250;SDS011;6692;50.710;7.180;2023-06-26T10:57:57;1999.90;;;999.90;;
13250;SDS011;6692;50.710;7.180;2023-06-26T11:02:09;310.30;;;298.53;;
13250;SDS011;6692;50.710;7.180;2023-06-26T11:04:10;879.20;;;537.87;;
13250;SDS011;6692;50.710;7.180;2023-06-26T11:06:11;865.00;;;524.40;;
13250;SDS011;6692;50.710;7.180;2023-06-26T11:08:12;280.30;;;269.97;;
13250;SDS011;6692;50.710;7.180;2023-06-26T11:10:14;1999.90;;;999.90;;
13250;SDS011;6692;50.710;7.180;2023-06-26T11:12:15;204.00;;;196.70;;
13250;SDS011;6692;50.710;7.180;2023-06-26T11:14:17;210.97;;;203.47;;
13250;SDS011;6692;50.710;7.180;2023-06-26T11:16:17;200.50;;;193.10;;
13250;SDS011;6692;50.710;7.180;2023-06-26T11:18:18;190.97;;;183.90;;
13250;SDS011;6692;50.710;7.180;2023-06-26T11:20:19;157.73;;;152.03;;
13250;SDS011;6692;50.710;7.180;2023-06-26T11:22:20;207.07;;;199.70;;
13250;SDS011;6692;50.710;7.180;2023-06-26T11:24:20;202.60;;;195.50;;
13250;SDS011;6692;50.710;7.180;2023-06-26T11:26:21;202.27;;;194.80;;
13250;SDS011;6692;50.710;7.180;2023-06-26T11:28:22;216.03;;;208.17;;
13250;SDS011;6692;50.710;7.180;2023-06-26T11:30:23;131.23;;;126.43;;
13250;SDS011;6692;50.710;7.180;2023-06-26T11:32:25;112.53;;;108.27;;